Aérodrome :
LOGIN :

S'inscrire | Disclaimer

   EN    FR    IT 

 










Légende :    VFR   VFR Marginal   IFR   IFR Intensif   IFR Très Intensif
Visi : 
Plafond : 
>= 8 km
>= 3000ft
5 à 8 km
1000 à 3000 ft
1500m à 5 km
500 à 1000 ft
800 à 1500m
200 à 500 ft
< 800m
< 200 ft
Symboles :   Orages  Brouillard  Fortes neiges  Fortes précipitations  Vent > 20 kt
SIGMETs :   Divers  Orages  Givrage  Turbulence  Onde Orograph.  Cendres Volcan.






- Altitude de l'aérodrome : 781 ft
- Code IATA : SKP


LWSK - Skopje

DERNIER METAR :
  • 031330Z 04005KT 360V080 9999 SCT040 SCT100 22/04 Q1008 NOSIG

METARs EXPIRÉS :
  • 031300Z 04007KT 360V080 9999 SCT040 22/04 Q1009 NOSIG
  • 031230Z 00000KT 9999 SCT040 23/04 Q1009 NOSIG
  • 031200Z 32005KT 250V360 9999 SCT040 23/04 Q1009 NOSIG
  • 031130Z 00000KT 9999 SCT040 22/05 Q1009 NOSIG
  • 031100Z 32004KT 260V040 9999 SCT040 22/05 Q1009 NOSIG

TAF TAF LWSK
Valide du 03 à 12h jusqu'au 04 à 12h UTC


031130Z 0312/0412 VRB02KT 9999 SCT050
PROB30
TEMPO 0312/0316 VRB15KT SHRA FEW035CB BKN040



MET'MAP, la Météo Aéronautique d'un coup d'oeil ! - Copyright ORBIFLY Décembre 2007 - Disclaimer

ORBIFLY MET'MAP TEAM :

Programmation & Développement : Alexandra Zaïnal
Sur une idée originale de : Baudouin d'Aumeries
Assistance à la programmation : Marc-Olivier Méhu
Soutien technique & logistique : Manuel Goepfert

Contact : metmap@orbifly.com




SOURCES & CREDITS :

   NOAA